Time;durP1;ratioP1;P1;durP2;ratioP2;P2;SDS_P1;SDS_P2;PMS_P1;PMS_P2;Temp;Humidity;BMP_temperature;BMP_pressure;BME280_temperature;BME280_humidity;BME280_pressure;Samples;Min_cycle;Max_cycle;Signal;HPM_P1;HPM_P2
2021/12/09 00:00:35;;;;;;;8.77;4.63;;;2.10;99.90;;;;;;5023907;28;20489;-68
2021/12/09 00:03:06;;;;;;;15.68;5.40;;;2.10;99.90;;;;;;5022391;28;20041;-68
2021/12/09 00:05:36;;;;;;;13.82;4.97;;;2.10;99.90;;;;;;5023589;28;20041;-68
2021/12/09 00:08:05;;;;;;;18.98;4.93;;;2.10;99.90;;;;;;5015135;28;20044;-68
2021/12/09 00:10:34;;;;;;;10.35;5.32;;;2.10;99.90;;;;;;5006480;28;20045;-68
2021/12/09 00:13:03;;;;;;;10.07;5.68;;;2.10;99.90;;;;;;5019968;28;20037;-68
2021/12/09 00:15:31;;;;;;;13.98;4.88;;;2.10;99.90;;;;;;5006369;28;20076;-68
2021/12/09 00:17:58;;;;;;;10.18;5.03;;;2.10;99.90;;;;;;5022507;28;20111;-68
2021/12/09 00:20:26;;;;;;;11.05;5.00;;;2.10;99.90;;;;;;5005610;28;20067;-68
2021/12/09 00:22:53;;;;;;;9.38;4.82;;;2.10;99.90;;;;;;5010045;28;20049;-68
2021/12/09 00:25:20;;;;;;;14.18;5.90;;;2.10;99.90;;;;;;5017439;28;20063;-69
2021/12/09 00:27:47;;;;;;;14.48;5.13;;;2.10;99.90;;;;;;5015170;28;20048;-70
2021/12/09 00:30:15;;;;;;;12.90;5.72;;;2.10;99.90;;;;;;5019116;28;20033;-70
2021/12/09 00:32:42;;;;;;;11.90;5.43;;;2.10;99.90;;;;;;5022981;28;20281;-67
2021/12/09 00:35:14;;;;;;;11.45;5.15;;;2.10;99.90;;;;;;5008825;28;20041;-67
2021/12/09 00:37:53;;;;;;;13.13;6.50;;;2.00;99.90;;;;;;5005018;28;20128;-68
2021/12/09 00:40:21;;;;;;;12.48;5.72;;;2.00;99.90;;;;;;5005986;28;20042;-68
2021/12/09 00:42:48;;;;;;;11.27;6.22;;;2.00;99.90;;;;;;5001176;28;20112;-67
2021/12/09 00:45:16;;;;;;;13.23;5.55;;;2.00;99.90;;;;;;5010661;28;20493;-69
2021/12/09 00:47:44;;;;;;;9.77;5.43;;;2.00;99.90;;;;;;5005243;28;20080;-70
2021/12/09 00:50:12;;;;;;;12.35;5.50;;;1.90;99.90;;;;;;5022688;28;20044;-70
2021/12/09 00:52:39;;;;;;;12.60;5.50;;;1.90;99.90;;;;;;5026914;28;20091;-69
2021/12/09 00:55:09;;;;;;;12.80;6.32;;;1.90;99.90;;;;;;5010641;28;20030;-70
2021/12/09 00:57:38;;;;;;;13.32;5.55;;;1.90;99.90;;;;;;5019547;28;20048;-70
2021/12/09 01:00:20;;;;;;;11.13;6.00;;;1.90;99.90;;;;;;5013409;28;20037;-70
2021/12/09 01:02:48;;;;;;;11.45;5.43;;;1.90;99.90;;;;;;4981880;28;20569;-70
2021/12/09 01:05:16;;;;;;;12.45;6.68;;;1.90;99.90;;;;;;5023231;28;20099;-68
2021/12/09 01:07:43;;;;;;;11.77;5.57;;;1.80;99.90;;;;;;5002347;28;20045;-67
2021/12/09 01:10:14;;;;;;;10.68;5.55;;;1.80;99.90;;;;;;5019954;28;20215;-68
2021/12/09 01:12:42;;;;;;;11.43;5.82;;;1.80;99.90;;;;;;4990020;28;20256;-68
2021/12/09 01:15:11;;;;;;;12.73;6.15;;;1.80;99.90;;;;;;5019531;28;20033;-68
2021/12/09 01:17:40;;;;;;;14.60;6.68;;;1.80;99.90;;;;;;5023566;28;20392;-68
2021/12/09 01:20:10;;;;;;;14.40;6.55;;;1.80;99.90;;;;;;4989344;28;20048;-68
2021/12/09 01:22:40;;;;;;;13.90;5.78;;;1.80;99.90;;;;;;5004131;28;20045;-68
2021/12/09 01:25:09;;;;;;;15.82;6.68;;;1.80;99.90;;;;;;5005274;28;20041;-69
2021/12/09 01:27:39;;;;;;;11.57;6.63;;;1.80;99.90;;;;;;4996678;28;20045;-69
2021/12/09 01:30:12;;;;;;;14.35;6.03;;;1.80;99.90;;;;;;5011605;28;20037;-69
2021/12/09 01:32:49;;;;;;;13.10;6.40;;;1.80;99.90;;;;;;5022102;28;20037;-69
2021/12/09 01:35:19;;;;;;;10.50;6.38;;;1.80;99.90;;;;;;5009374;28;20077;-70
2021/12/09 01:37:47;;;;;;;14.43;6.50;;;1.70;99.90;;;;;;5023565;28;20140;-70
2021/12/09 01:40:15;;;;;;;13.30;6.70;;;1.70;99.90;;;;;;4994652;28;20049;-69
2021/12/09 01:42:43;;;;;;;12.48;6.47;;;1.80;99.90;;;;;;5009914;28;20045;-69
2021/12/09 01:45:11;;;;;;;16.73;6.68;;;1.70;99.90;;;;;;5005399;28;20362;-70
2021/12/09 01:47:39;;;;;;;16.88;6.90;;;1.70;99.90;;;;;;4999559;28;20478;-69
2021/12/09 01:50:08;;;;;;;12.82;6.75;;;1.70;99.90;;;;;;5019798;28;20565;-69
2021/12/09 01:52:36;;;;;;;15.85;7.05;;;1.70;99.90;;;;;;5024360;28;20466;-67
2021/12/09 01:55:06;;;;;;;12.55;6.25;;;1.70;99.90;;;;;;5006691;28;20112;-67
2021/12/09 01:57:33;;;;;;;16.02;6.90;;;1.70;99.90;;;;;;5006093;28;20603;-67
2021/12/09 02:00:01;;;;;;;17.00;7.85;;;1.70;99.90;;;;;;5022078;28;20087;-67
2021/12/09 02:02:28;;;;;;;13.75;7.07;;;1.70;99.90;;;;;;5020310;28;20565;-68
2021/12/09 02:04:55;;;;;;;16.75;7.07;;;1.70;99.90;;;;;;5008143;28;20046;-67
2021/12/09 02:07:23;;;;;;;14.07;7.50;;;1.70;99.90;;;;;;5025356;28;20049;-67
2021/12/09 02:09:50;;;;;;;16.98;7.43;;;1.70;99.90;;;;;;5020902;28;20120;-67
2021/12/09 02:12:17;;;;;;;15.02;6.97;;;1.60;99.90;;;;;;5018673;28;20104;-67
2021/12/09 02:14:46;;;;;;;15.45;6.95;;;1.60;99.90;;;;;;5003105;28;20116;-67
2021/12/09 02:17:14;;;;;;;13.07;7.90;;;1.60;99.90;;;;;;5000074;28;20298;-67
2021/12/09 02:19:44;;;;;;;12.55;6.47;;;1.60;99.90;;;;;;5007534;28;20100;-67
2021/12/09 02:22:13;;;;;;;12.25;6.85;;;1.60;99.90;;;;;;4998400;28;20124;-67
2021/12/09 02:24:41;;;;;;;16.23;7.13;;;1.50;99.90;;;;;;4990782;28;20548;-67
2021/12/09 02:27:08;;;;;;;14.80;7.20;;;1.60;99.90;;;;;;5015896;28;20068;-67
2021/12/09 02:29:39;;;;;;;13.77;7.45;;;1.60;99.90;;;;;;5008574;28;20620;-67
2021/12/09 02:32:07;;;;;;;17.05;7.90;;;1.50;99.90;;;;;;5001962;28;20037;-69
2021/12/09 02:34:35;;;;;;;17.30;7.10;;;1.60;99.90;;;;;;5002157;28;20048;-67
2021/12/09 02:37:04;;;;;;;20.77;8.80;;;1.60;99.90;;;;;;4991408;28;20079;-67
2021/12/09 02:39:31;;;;;;;19.45;7.20;;;1.60;99.90;;;;;;5005714;28;20065;-67
2021/12/09 02:41:59;;;;;;;15.13;7.20;;;1.60;99.90;;;;;;5018155;28;20038;-66
2021/12/09 02:44:27;;;;;;;18.58;7.10;;;1.60;99.90;;;;;;5036743;28;20049;-67
2021/12/09 02:46:56;;;;;;;18.65;7.35;;;1.50;99.90;;;;;;5027374;28;20377;-68
2021/12/09 02:49:27;;;;;;;24.13;8.27;;;1.50;99.90;;;;;;5002370;28;20042;-67
2021/12/09 02:51:56;;;;;;;25.75;8.43;;;1.50;99.90;;;;;;5007749;28;20142;-67
2021/12/09 02:54:25;;;;;;;16.67;8.25;;;1.50;99.90;;;;;;5004106;28;20049;-66
2021/12/09 02:56:57;;;;;;;12.48;7.50;;;1.50;99.90;;;;;;5003925;28;20112;-68
2021/12/09 02:59:25;;;;;;;18.58;8.10;;;1.50;99.90;;;;;;5039514;28;20061;-68
2021/12/09 03:01:57;;;;;;;17.33;7.68;;;1.50;99.90;;;;;;5004640;28;20148;-68
2021/12/09 03:04:42;;;;;;;17.33;8.77;;;1.50;99.90;;;;;;5009976;28;20123;-67
2021/12/09 03:07:18;;;;;;;21.98;8.85;;;1.50;99.90;;;;;;5005927;28;20045;-67
2021/12/09 03:09:50;;;;;;;16.33;7.85;;;1.60;99.90;;;;;;5005914;28;20312;-67
2021/12/09 03:12:24;;;;;;;16.02;7.88;;;1.60;99.90;;;;;;5008098;28;20116;-67
2021/12/09 03:14:52;;;;;;;16.60;7.75;;;1.60;99.90;;;;;;5022252;28;20037;-67
2021/12/09 03:17:20;;;;;;;19.55;8.63;;;1.50;99.90;;;;;;5009134;28;20052;-67
2021/12/09 03:19:48;;;;;;;18.02;7.85;;;1.60;99.90;;;;;;5005712;28;20037;-67
2021/12/09 03:22:15;;;;;;;18.30;8.93;;;1.60;99.90;;;;;;5000622;28;20755;-67
2021/12/09 03:24:43;;;;;;;20.08;8.55;;;1.60;99.90;;;;;;5007281;28;20562;-68
2021/12/09 03:27:11;;;;;;;15.60;8.38;;;1.60;99.90;;;;;;5011877;28;20426;-67
2021/12/09 03:29:40;;;;;;;21.05;8.23;;;1.60;99.90;;;;;;5013443;28;20041;-68
2021/12/09 03:32:13;;;;;;;18.77;8.40;;;1.60;99.90;;;;;;5020817;28;20041;-67
2021/12/09 03:34:43;;;;;;;19.95;9.27;;;1.60;99.90;;;;;;5006797;28;20080;-71
2021/12/09 03:37:16;;;;;;;21.17;8.50;;;1.60;99.90;;;;;;5007884;28;20046;-68
2021/12/09 03:39:43;;;;;;;18.02;7.78;;;1.60;99.90;;;;;;5006207;28;20220;-71
2021/12/09 03:42:13;;;;;;;15.05;8.55;;;1.60;99.90;;;;;;5004132;28;20073;-67
2021/12/09 03:44:41;;;;;;;17.23;8.75;;;1.50;99.90;;;;;;5023660;28;20187;-67
2021/12/09 03:47:12;;;;;;;16.70;8.32;;;1.50;99.90;;;;;;5006347;28;20100;-67
2021/12/09 03:49:44;;;;;;;17.33;8.07;;;1.50;99.90;;;;;;5017983;28;20060;-67
2021/12/09 03:52:13;;;;;;;16.77;8.85;;;1.50;99.90;;;;;;4992235;28;20040;-67
2021/12/09 03:54:42;;;;;;;12.68;7.22;;;1.50;99.90;;;;;;5008145;28;20080;-66
2021/12/09 03:57:10;;;;;;;16.10;7.22;;;1.40;99.90;;;;;;5005907;28;20052;-66
2021/12/09 03:59:39;;;;;;;16.50;7.97;;;1.40;99.90;;;;;;5009015;28;20060;-67
2021/12/09 04:02:07;;;;;;;15.30;8.02;;;1.40;99.90;;;;;;5007778;28;20501;-67
2021/12/09 04:04:34;;;;;;;17.98;8.27;;;1.40;99.90;;;;;;5007778;28;20485;-67
2021/12/09 04:07:02;;;;;;;17.75;8.77;;;1.40;99.90;;;;;;5022679;28;20034;-67
2021/12/09 04:09:30;;;;;;;14.82;8.27;;;1.30;99.90;;;;;;5005891;28;20051;-67
2021/12/09 04:11:58;;;;;;;17.63;8.48;;;1.30;99.90;;;;;;4984099;28;20046;-66
2021/12/09 04:14:25;;;;;;;13.63;7.35;;;1.30;99.90;;;;;;5021833;28;20080;-68
2021/12/09 04:16:53;;;;;;;15.68;7.90;;;1.30;99.90;;;;;;5011564;28;20120;-67
2021/12/09 04:19:20;;;;;;;15.90;8.13;;;1.20;99.90;;;;;;5015174;28;20046;-66
2021/12/09 04:21:47;;;;;;;25.20;7.88;;;1.30;99.90;;;;;;5019673;28;20041;-67
2021/12/09 04:24:16;;;;;;;20.23;8.00;;;1.20;99.90;;;;;;5023312;28;20115;-67
2021/12/09 04:26:47;;;;;;;18.15;7.75;;;1.20;99.90;;;;;;5028011;28;20187;-69
2021/12/09 04:29:15;;;;;;;17.98;8.70;;;1.20;99.90;;;;;;5006456;28;20118;-69
2021/12/09 04:31:44;;;;;;;16.17;7.65;;;1.20;99.90;;;;;;5007386;28;20043;-69
2021/12/09 04:34:11;;;;;;;17.45;8.57;;;1.10;99.90;;;;;;5025686;28;20264;-70
2021/12/09 04:36:38;;;;;;;13.88;7.82;;;1.10;99.90;;;;;;5026533;28;20033;-67
2021/12/09 04:39:07;;;;;;;17.67;9.70;;;1.10;99.90;;;;;;5015437;28;20041;-68
2021/12/09 04:41:34;;;;;;;18.00;8.77;;;1.10;99.90;;;;;;5011014;28;20041;-69
2021/12/09 04:44:01;;;;;;;19.90;9.02;;;1.10;99.90;;;;;;4999797;28;20040;-68
2021/12/09 04:46:29;;;;;;;16.20;8.65;;;1.10;99.90;;;;;;5034509;28;20143;-69
2021/12/09 04:48:56;;;;;;;19.73;8.93;;;1.10;99.90;;;;;;5014121;28;20042;-69
2021/12/09 04:51:24;;;;;;;16.85;8.55;;;1.10;99.90;;;;;;5035343;28;20101;-67
2021/12/09 04:53:51;;;;;;;17.88;8.80;;;1.10;99.90;;;;;;5005551;28;20044;-66
2021/12/09 04:56:17;;;;;;;17.90;9.25;;;1.10;99.90;;;;;;5024319;28;20096;-68
2021/12/09 04:58:44;;;;;;;24.07;10.50;;;1.10;99.90;;;;;;5021899;28;20056;-65
2021/12/09 05:01:12;;;;;;;15.93;9.30;;;1.10;99.90;;;;;;5037945;28;20041;-67
2021/12/09 05:03:39;;;;;;;15.13;8.10;;;1.10;99.90;;;;;;5005567;28;20048;-68
2021/12/09 05:06:06;;;;;;;20.42;8.70;;;1.10;99.90;;;;;;5023552;28;20470;-65
2021/12/09 05:08:35;;;;;;;18.83;8.27;;;1.10;99.90;;;;;;5017126;28;20033;-67
2021/12/09 05:11:13;;;;;;;15.50;7.78;;;1.00;99.90;;;;;;5009819;28;20038;-68
2021/12/09 05:13:41;;;;;;;23.23;7.63;;;1.10;99.90;;;;;;5096440;22;21006;-68
2021/12/09 05:16:11;;;;;;;14.95;7.70;;;1.10;99.90;;;;;;5003892;28;20485;-69
2021/12/09 05:18:40;;;;;;;18.08;7.40;;;1.00;99.90;;;;;;5016734;28;20032;-69
2021/12/09 05:21:09;;;;;;;24.15;8.60;;;1.00;99.90;;;;;;5008194;28;20064;-69
2021/12/09 05:23:36;;;;;;;17.90;8.43;;;1.00;99.90;;;;;;4997579;28;20359;-69
2021/12/09 05:26:05;;;;;;;17.33;7.20;;;1.10;99.90;;;;;;4997800;28;20462;-69
2021/12/09 05:28:36;;;;;;;14.80;8.27;;;1.00;99.90;;;;;;5013170;28;20524;-69
2021/12/09 05:33:51;;;;;;;15.05;7.28;;;1.00;99.90;;;;;;5001587;28;20204;-69
2021/12/09 05:36:19;;;;;;;16.20;9.35;;;1.00;99.90;;;;;;5012728;28;20063;-69
2021/12/09 05:38:46;;;;;;;17.45;7.55;;;0.90;99.90;;;;;;5016220;28;20043;-69
2021/12/09 05:41:14;;;;;;;17.67;7.93;;;1.00;99.90;;;;;;4991757;28;20222;-69
2021/12/09 05:43:41;;;;;;;14.45;7.72;;;1.00;99.90;;;;;;4983979;28;20319;-69
2021/12/09 05:46:09;;;;;;;21.65;8.25;;;1.00;99.90;;;;;;5001992;28;20564;-69
2021/12/09 05:48:39;;;;;;;12.32;7.47;;;0.90;99.90;;;;;;4989198;28;20042;-69
2021/12/09 05:51:07;;;;;;;18.77;7.28;;;1.00;99.90;;;;;;4989495;28;20482;-69
2021/12/09 05:53:34;;;;;;;13.23;7.68;;;1.00;99.90;;;;;;5000321;28;20233;-69
2021/12/09 05:56:04;;;;;;;14.32;7.32;;;0.90;99.90;;;;;;5007645;28;20107;-69
2021/12/09 05:58:32;;;;;;;16.27;7.20;;;0.90;99.90;;;;;;5005914;28;20068;-69
2021/12/09 06:00:59;;;;;;;12.20;7.38;;;0.90;99.90;;;;;;5000458;28;20042;-68
2021/12/09 06:03:26;;;;;;;18.02;8.57;;;0.90;99.90;;;;;;4999432;28;20045;-69
2021/12/09 06:05:54;;;;;;;15.80;7.93;;;0.90;99.90;;;;;;5024174;28;20410;-71
2021/12/09 06:08:21;;;;;;;18.50;7.60;;;0.90;99.90;;;;;;4998636;28;20049;-71
2021/12/09 06:10:49;;;;;;;14.05;7.80;;;0.90;99.90;;;;;;5001754;28;20041;-71
2021/12/09 06:13:16;;;;;;;18.20;7.25;;;0.90;99.90;;;;;;4989299;28;20046;-71
2021/12/09 06:15:45;;;;;;;17.15;7.25;;;0.90;99.90;;;;;;5005447;28;20061;-72
2021/12/09 06:18:12;;;;;;;23.85;8.52;;;0.90;99.90;;;;;;4994664;28;20042;-71
2021/12/09 06:20:40;;;;;;;15.10;8.32;;;0.80;99.90;;;;;;5001485;28;20059;-71
2021/12/09 06:23:08;;;;;;;15.77;8.05;;;0.80;99.90;;;;;;4983079;28;20107;-71
2021/12/09 06:25:35;;;;;;;17.35;7.88;;;0.80;99.90;;;;;;5009558;28;20061;-71
2021/12/09 06:28:02;;;;;;;16.92;7.57;;;0.80;99.90;;;;;;5000931;28;20397;-71
2021/12/09 06:30:30;;;;;;;20.70;9.02;;;0.80;99.90;;;;;;4987584;28;20148;-71
2021/12/09 06:32:57;;;;;;;16.23;7.43;;;0.80;99.90;;;;;;5010007;28;20033;-71
2021/12/09 06:35:28;;;;;;;15.60;7.72;;;0.70;99.90;;;;;;5017232;28;20128;-71
2021/12/09 06:37:59;;;;;;;15.93;7.50;;;0.70;99.90;;;;;;5006462;28;20041;-69
2021/12/09 06:40:27;;;;;;;12.35;7.32;;;0.80;99.90;;;;;;5006484;28;20041;-69
2021/12/09 06:42:55;;;;;;;17.63;7.47;;;0.80;99.90;;;;;;4988491;28;20049;-69
2021/12/09 06:45:23;;;;;;;13.15;6.68;;;0.80;99.90;;;;;;5021581;28;20169;-69
2021/12/09 06:47:51;;;;;;;17.83;8.18;;;0.70;99.90;;;;;;5006416;28;20088;-69
2021/12/09 06:50:19;;;;;;;15.23;7.75;;;0.80;99.90;;;;;;4987068;28;20526;-69
2021/12/09 06:52:47;;;;;;;18.80;7.65;;;0.80;99.90;;;;;;5004609;28;20037;-69
2021/12/09 06:55:17;;;;;;;20.83;7.75;;;0.80;99.90;;;;;;5002984;28;20382;-69
2021/12/09 06:57:47;;;;;;;12.88;7.45;;;0.80;99.90;;;;;;5020921;28;20047;-69
2021/12/09 07:00:23;;;;;;;21.33;8.35;;;0.80;99.90;;;;;;4988371;28;20508;-69
2021/12/09 07:02:50;;;;;;;18.65;7.75;;;0.80;99.90;;;;;;4984155;28;20042;-69
2021/12/09 07:05:21;;;;;;;16.88;8.00;;;0.80;99.90;;;;;;4992676;28;20546;-70
2021/12/09 07:07:50;;;;;;;15.93;7.18;;;0.80;99.90;;;;;;5002908;28;20055;-70
2021/12/09 07:10:22;;;;;;;18.20;7.63;;;0.80;99.90;;;;;;5001473;28;20041;-70
2021/12/09 07:12:50;;;;;;;13.88;7.25;;;0.80;99.90;;;;;;5014529;28;20037;-71
2021/12/09 07:15:18;;;;;;;18.30;7.65;;;0.80;99.90;;;;;;5005011;28;20045;-70
2021/12/09 07:17:46;;;;;;;18.02;7.97;;;0.80;99.90;;;;;;4995001;28;20056;-75
2021/12/09 07:20:18;;;;;;;15.38;7.55;;;0.90;99.90;;;;;;4991862;28;20330;-70
2021/12/09 07:22:47;;;;;;;17.98;7.45;;;0.90;99.90;;;;;;5003258;28;20455;-72
2021/12/09 07:25:15;;;;;;;18.23;7.47;;;0.90;99.90;;;;;;5016539;28;20052;-69
2021/12/09 07:27:43;;;;;;;18.73;7.65;;;0.90;99.90;;;;;;5015328;28;20045;-69
2021/12/09 07:30:12;;;;;;;16.60;7.57;;;0.90;99.90;;;;;;4988216;28;20091;-75
2021/12/09 07:32:39;;;;;;;17.48;7.25;;;0.90;99.90;;;;;;5002814;28;20080;-70
2021/12/09 07:35:08;;;;;;;13.57;7.35;;;0.90;99.90;;;;;;4985977;28;20473;-70
2021/12/09 07:37:37;;;;;;;20.45;7.72;;;0.90;99.90;;;;;;4983978;28;20397;-70
2021/12/09 07:40:08;;;;;;;38.45;8.95;;;1.00;99.90;;;;;;4989589;28;20117;-69
2021/12/09 07:42:36;;;;;;;14.98;6.95;;;0.90;99.90;;;;;;4997925;28;20041;-70
2021/12/09 07:45:04;;;;;;;17.02;7.95;;;1.00;99.90;;;;;;4980621;28;20414;-70
2021/12/09 07:47:32;;;;;;;16.45;7.50;;;1.00;99.90;;;;;;4986322;28;20041;-69
2021/12/09 07:49:58;;;;;;;21.58;7.45;;;1.10;99.90;;;;;;4995084;28;20497;-70
2021/12/09 07:52:26;;;;;;;18.45;7.57;;;1.10;99.90;;;;;;4992478;28;20272;-69
2021/12/09 07:54:53;;;;;;;17.05;6.72;;;1.10;99.90;;;;;;4982873;28;20214;-69
2021/12/09 07:57:20;;;;;;;17.77;7.28;;;1.10;99.90;;;;;;5007443;28;20041;-69
2021/12/09 07:59:48;;;;;;;18.17;6.85;;;1.10;99.90;;;;;;5005568;28;20244;-70
2021/12/09 08:02:16;;;;;;;24.27;7.45;;;1.10;99.90;;;;;;5008428;28;20049;-69
2021/12/09 08:04:43;;;;;;;16.92;7.05;;;1.20;99.90;;;;;;5006936;28;20044;-69
2021/12/09 08:07:11;;;;;;;16.30;7.03;;;1.20;99.90;;;;;;4989257;28;20126;-70
2021/12/09 08:09:38;;;;;;;16.35;6.88;;;1.20;99.90;;;;;;5000471;28;20209;-69
2021/12/09 08:12:06;;;;;;;23.65;8.55;;;1.30;99.90;;;;;;5019751;28;20033;-69
2021/12/09 08:14:33;;;;;;;20.63;8.38;;;1.30;99.90;;;;;;5004715;28;20545;-70
2021/12/09 08:17:33;;;;;;;18.52;7.50;;;1.30;99.90;;;;;;5004683;28;20069;-70
2021/12/09 08:19:56;;;;;;;13.35;6.63;;;1.30;99.90;;;;;;5008516;28;20471;-69
2021/12/09 08:22:23;;;;;;;17.58;6.78;;;1.30;99.90;;;;;;5020915;28;20051;-69
2021/12/09 08:24:55;;;;;;;13.13;6.25;;;1.40;99.90;;;;;;4988808;28;20405;-70
2021/12/09 08:27:23;;;;;;;24.95;7.50;;;1.40;99.90;;;;;;5001874;28;20100;-70
2021/12/09 08:29:50;;;;;;;22.70;7.32;;;1.40;99.90;;;;;;5030180;28;20320;-70
2021/12/09 08:32:18;;;;;;;15.25;6.72;;;1.40;99.90;;;;;;5008027;28;20041;-69
2021/12/09 08:34:45;;;;;;;15.80;6.57;;;1.40;99.90;;;;;;5008226;28;20087;-70
2021/12/09 08:37:13;;;;;;;17.25;6.93;;;1.40;99.90;;;;;;5006943;28;20638;-69
2021/12/09 08:39:39;;;;;;;15.57;5.95;;;1.50;99.90;;;;;;5002278;28;20037;-69
2021/12/09 08:42:07;;;;;;;16.10;6.68;;;1.50;99.90;;;;;;5008202;28;20060;-69
2021/12/09 08:44:34;;;;;;;18.13;6.97;;;1.50;99.90;;;;;;5003289;28;20135;-70
2021/12/09 08:47:01;;;;;;;20.27;6.82;;;1.50;99.90;;;;;;5008467;28;20041;-70
2021/12/09 08:49:27;;;;;;;;;;;1.50;99.90;;;;;;5009859;28;20451;-70
2021/12/09 08:51:55;;;;;;;18.33;6.40;;;1.60;99.90;;;;;;5007259;28;19924;-70
2021/12/09 08:54:22;;;;;;;16.02;6.65;;;1.60;99.90;;;;;;5020364;28;20037;-70
2021/12/09 08:56:51;;;;;;;21.00;7.25;;;1.60;99.90;;;;;;4990483;28;20627;-70
2021/12/09 08:59:20;;;;;;;14.23;5.93;;;1.60;99.90;;;;;;4985504;28;20401;-69
2021/12/09 09:01:54;;;;;;;16.85;5.78;;;1.60;99.90;;;;;;5006361;28;20041;-72
2021/12/09 09:04:22;;;;;;;11.93;6.35;;;1.60;99.90;;;;;;4988687;28;20041;-71
2021/12/09 09:06:52;;;;;;;13.48;5.97;;;1.70;99.90;;;;;;5018932;28;20053;-72
2021/12/09 09:09:21;;;;;;;15.82;6.15;;;1.70;99.90;;;;;;4975512;28;20141;-69
2021/12/09 09:11:48;;;;;;;13.60;6.45;;;1.80;99.90;;;;;;5000986;28;20242;-70
2021/12/09 09:14:15;;;;;;;17.60;6.18;;;1.70;99.90;;;;;;5007371;28;20069;-70
2021/12/09 09:16:43;;;;;;;16.90;5.93;;;1.80;99.90;;;;;;5012521;28;20500;-70
2021/12/09 09:19:13;;;;;;;15.20;6.25;;;1.80;99.90;;;;;;5030804;28;20037;-70
2021/12/09 09:21:42;;;;;;;15.13;6.05;;;1.80;99.90;;;;;;4990775;28;20068;-70
2021/12/09 09:24:09;;;;;;;18.05;5.88;;;1.80;99.90;;;;;;4998574;28;20075;-70
2021/12/09 09:26:38;;;;;;;16.65;6.55;;;1.90;99.90;;;;;;5005572;28;20541;-69
2021/12/09 09:29:05;;;;;;;13.70;7.00;;;1.90;99.90;;;;;;5006399;28;20120;-69
2021/12/09 09:31:33;;;;;;;17.33;6.32;;;1.90;99.90;;;;;;4987205;28;20045;-69
2021/12/09 09:34:03;;;;;;;16.85;6.95;;;2.00;99.90;;;;;;4980321;28;20076;-70
2021/12/09 09:36:31;;;;;;;13.85;5.68;;;2.00;99.90;;;;;;4995430;28;20693;-70
2021/12/09 09:39:10;;;;;;;16.20;6.30;;;2.00;99.90;;;;;;4983162;28;20427;-70
2021/12/09 09:41:37;;;;;;;13.60;5.40;;;2.10;99.90;;;;;;5004911;28;20038;-70
2021/12/09 09:44:16;;;;;;;15.00;6.43;;;2.10;99.90;;;;;;5003528;28;20091;-69
2021/12/09 09:46:46;;;;;;;14.32;7.45;;;2.10;99.90;;;;;;5007803;28;20041;-69
2021/12/09 09:49:14;;;;;;;13.50;6.35;;;2.20;99.90;;;;;;5000394;28;20126;-70
2021/12/09 09:51:43;;;;;;;21.10;7.78;;;2.20;99.90;;;;;;5000248;28;20117;-70
2021/12/09 09:54:10;;;;;;;16.90;6.60;;;2.30;99.90;;;;;;5003948;28;20044;-70
2021/12/09 09:56:41;;;;;;;17.77;6.25;;;2.30;99.90;;;;;;4987349;28;20120;-70
2021/12/09 09:59:12;;;;;;;17.25;6.05;;;2.30;99.90;;;;;;4986396;28;20502;-70
2021/12/09 10:01:41;;;;;;;14.32;6.63;;;2.40;99.90;;;;;;4993852;28;20033;-70
2021/12/09 10:04:22;;;;;;;22.02;7.53;;;2.40;99.90;;;;;;4991270;28;20177;-70
2021/12/09 10:06:50;;;;;;;21.00;6.85;;;2.50;99.90;;;;;;4992720;28;20041;-70
2021/12/09 10:09:20;;;;;;;12.13;5.75;;;2.50;99.90;;;;;;5006501;28;20037;-70
2021/12/09 10:11:48;;;;;;;12.50;6.13;;;2.50;99.90;;;;;;5008011;28;20053;-70
2021/12/09 10:14:24;;;;;;;14.00;6.72;;;2.50;99.90;;;;;;5007149;28;20320;-70
2021/12/09 10:17:06;;;;;;;13.40;5.97;;;2.50;99.90;;;;;;4999013;28;20041;-70
2021/12/09 10:19:36;;;;;;;15.75;6.03;;;2.60;99.90;;;;;;5008292;28;20037;-69
2021/12/09 10:22:08;;;;;;;14.50;6.50;;;2.60;99.90;;;;;;5005451;28;20049;-75
2021/12/09 10:24:37;;;;;;;16.17;7.32;;;2.60;99.90;;;;;;4995884;28;20045;-73
2021/12/09 10:27:06;;;;;;;15.55;6.65;;;2.70;99.90;;;;;;4999124;28;20144;-71
2021/12/09 10:29:42;;;;;;;17.83;6.50;;;2.70;99.90;;;;;;4990304;28;20129;-75
2021/12/09 10:32:16;;;;;;;21.70;8.70;;;2.70;99.90;;;;;;5000799;28;20077;-70
2021/12/09 10:34:46;;;;;;;20.80;7.10;;;2.80;99.90;;;;;;5019437;28;20422;-70
2021/12/09 10:37:30;;;;;;;14.07;7.55;;;2.80;99.90;;;;;;4998373;28;20437;-75
2021/12/09 10:40:05;;;;;;;18.80;7.95;;;2.80;99.90;;;;;;5003504;28;20038;-70
2021/12/09 10:42:38;;;;;;;20.05;7.80;;;2.80;99.90;;;;;;4990050;28;20042;-72
2021/12/09 10:45:14;;;;;;;19.50;7.47;;;2.80;99.90;;;;;;4990985;28;20135;-71
2021/12/09 10:47:58;;;;;;;19.65;7.55;;;2.80;99.90;;;;;;4996996;28;20076;-72
2021/12/09 10:50:42;;;;;;;17.77;7.88;;;2.90;99.90;;;;;;4999085;28;20037;-73
2021/12/09 10:56:09;;;;;;;22.00;7.60;;;2.90;99.90;;;;;;5004890;28;20255;-70
2021/12/09 10:58:43;;;;;;;17.90;7.40;;;2.90;99.90;;;;;;5025668;28;20039;-70
2021/12/09 11:01:23;;;;;;;20.67;8.48;;;2.90;99.90;;;;;;4987609;28;20144;-70
2021/12/09 11:04:03;;;;;;;16.20;8.05;;;2.90;99.90;;;;;;4990793;28;20068;-70
2021/12/09 11:06:39;;;;;;;19.90;8.73;;;3.00;99.90;;;;;;5014321;28;20590;-70
2021/12/09 11:09:12;;;;;;;20.03;7.90;;;3.00;99.90;;;;;;5012092;28;20029;-70
2021/12/09 11:11:45;;;;;;;18.35;9.10;;;3.00;99.90;;;;;;4995277;28;20300;-70
2021/12/09 11:14:20;;;;;;;21.60;7.72;;;3.10;99.90;;;;;;5000023;28;20030;-70
2021/12/09 11:16:56;;;;;;;19.98;7.75;;;3.00;99.90;;;;;;5006533;28;20033;-70
2021/12/09 11:21:59;;;;;;;22.00;7.10;;;3.10;99.90;;;;;;5025918;28;20042;-70
2021/12/09 11:24:33;;;;;;;22.75;8.18;;;3.10;99.90;;;;;;5004670;28;20037;-70
2021/12/09 11:27:12;;;;;;;24.90;8.82;;;3.20;99.90;;;;;;5006694;28;20037;-70
2021/12/09 11:29:51;;;;;;;19.40;8.05;;;3.20;99.90;;;;;;5007924;28;20054;-71
2021/12/09 11:32:33;;;;;;;18.75;8.85;;;3.20;99.90;;;;;;5008920;28;20041;-71
2021/12/09 11:35:27;;;;;;;21.45;7.65;;;3.20;99.90;;;;;;5015637;28;20375;-71
2021/12/09 11:38:20;;;;;;;19.05;7.47;;;3.20;99.90;;;;;;5007258;28;20569;-71
2021/12/09 11:40:56;;;;;;;23.73;8.93;;;3.30;99.90;;;;;;4988024;28;20041;-71
2021/12/09 11:43:29;;;;;;;22.92;9.68;;;3.30;99.90;;;;;;5008699;28;20041;-71
2021/12/09 11:45:59;;;;;;;20.85;9.38;;;3.30;99.90;;;;;;5001289;28;20382;-71
2021/12/09 11:48:27;;;;;;;23.27;8.95;;;3.30;99.90;;;;;;4989143;28;20050;-71
2021/12/09 11:50:54;;;;;;;22.55;8.57;;;3.20;99.90;;;;;;5006404;28;20561;-71
2021/12/09 11:53:27;;;;;;;19.58;9.73;;;3.30;99.90;;;;;;5006733;28;20119;-71
2021/12/09 11:56:05;;;;;;;17.15;7.90;;;3.30;99.90;;;;;;4983116;28;20060;-71
2021/12/09 11:58:40;;;;;;;22.30;8.70;;;3.30;99.90;;;;;;5007973;28;20045;-71
2021/12/09 12:12:29;;;;;;;21.65;8.18;;;3.40;99.90;;;;;;5003089;28;20040;-71
2021/12/09 12:15:17;;;;;;;29.38;9.32;;;3.30;99.90;;;;;;4984208;28;20032;-71
2021/12/09 12:32:28;;;;;;;25.73;10.07;;;3.50;99.90;;;;;;5000213;28;20406;-71
2021/12/09 12:40:41;;;;;;;32.75;10.60;;;3.60;99.90;;;;;;5017589;28;20486;-71
2021/12/09 12:43:22;;;;;;;25.33;10.90;;;3.60;99.90;;;;;;4986198;28;20038;-71
2021/12/09 12:51:33;;;;;;;25.60;10.60;;;3.70;99.90;;;;;;5003425;28;20068;-72
2021/12/09 12:54:31;;;;;;;27.27;10.68;;;3.70;99.90;;;;;;4989877;28;20134;-73
2021/12/09 12:57:14;;;;;;;34.42;10.65;;;3.80;99.90;;;;;;5014006;28;20518;-72
2021/12/09 12:59:59;;;;;;;31.20;10.38;;;3.80;99.90;;;;;;5004015;28;20071;-72
2021/12/09 13:05:18;;;;;;;26.02;12.32;;;3.80;99.90;;;;;;5001859;28;20075;-70
2021/12/09 13:08:20;;;;;;;33.40;11.73;;;3.80;99.90;;;;;;5009990;28;20072;-70
2021/12/09 13:16:49;;;;;;;30.35;11.13;;;3.90;99.90;;;;;;5000340;28;20120;-70
2021/12/09 13:19:41;;;;;;;22.98;10.82;;;3.90;99.90;;;;;;4998408;28;20042;-70
2021/12/09 13:22:11;;;;;;;33.20;10.95;;;3.80;99.90;;;;;;4986534;28;20380;-70
2021/12/09 13:30:22;;;;;;;26.92;11.85;;;3.80;99.90;;;;;;5018933;28;20071;-70
2021/12/09 13:36:12;;;;;;;23.83;10.13;;;3.80;99.90;;;;;;5006064;28;20037;-70
2021/12/09 13:47:20;;;;;;;26.57;11.43;;;3.90;99.90;;;;;;5000746;28;20045;-71
2021/12/09 13:50:11;;;;;;;26.90;10.95;;;3.90;99.90;;;;;;4985274;28;20350;-71
2021/12/09 13:55:22;;;;;;;23.77;10.55;;;3.90;99.90;;;;;;4997453;28;20363;-71
2021/12/09 13:58:05;;;;;;;30.25;11.32;;;4.00;99.90;;;;;;4986000;28;20119;-71
2021/12/09 14:00:39;;;;;;;33.90;12.68;;;4.00;99.90;;;;;;5002935;28;20132;-71
2021/12/09 14:03:13;;;;;;;26.83;11.02;;;4.00;99.90;;;;;;4998692;28;20055;-71
2021/12/09 14:05:52;;;;;;;26.67;10.73;;;4.00;99.90;;;;;;5006234;28;20131;-70
2021/12/09 14:08:48;;;;;;;21.88;10.73;;;4.00;99.90;;;;;;5022904;28;20113;-71
2021/12/09 14:11:28;;;;;;;22.92;10.82;;;4.00;99.90;;;;;;4986903;28;20093;-71
2021/12/09 14:14:04;;;;;;;20.45;10.25;;;4.00;99.90;;;;;;5003066;28;20072;-70
2021/12/09 14:16:59;;;;;;;21.65;10.50;;;4.00;99.90;;;;;;4999952;28;20393;-71